createdAt,value
2023-01-13T00:00:10.036Z,20.27
2023-01-13T00:02:36.921Z,21.23
2023-01-13T00:05:04.245Z,21.15
2023-01-13T00:07:31.132Z,19.60
2023-01-13T00:09:57.909Z,18.70
2023-01-13T00:12:24.733Z,19.67
2023-01-13T00:14:51.581Z,22.77
2023-01-13T00:17:18.479Z,20.80
2023-01-13T00:19:46.581Z,19.23
2023-01-13T00:22:13.527Z,19.23
2023-01-13T00:24:40.337Z,21.27
2023-01-13T00:27:07.165Z,20.55
2023-01-13T00:29:34.019Z,20.33
2023-01-13T00:32:00.834Z,19.70
2023-01-13T00:34:27.598Z,16.52
2023-01-13T00:36:54.442Z,18.67
2023-01-13T00:39:21.247Z,21.40
2023-01-13T00:42:06.745Z,17.67
2023-01-13T00:44:33.537Z,22.25
2023-01-13T00:47:00.927Z,19.98
2023-01-13T00:49:27.662Z,17.67
2023-01-13T00:51:54.515Z,16.35
2023-01-13T00:54:21.534Z,17.20
2023-01-13T00:56:48.291Z,20.38
2023-01-13T00:59:15.267Z,18.23
2023-01-13T01:01:42.345Z,17.52
2023-01-13T01:04:09.247Z,18.15
2023-01-13T01:06:36.072Z,19.77
2023-01-13T01:09:03.049Z,20.30
2023-01-13T01:11:32.045Z,16.70
2023-01-13T01:14:01.734Z,16.63
2023-01-13T01:16:30.810Z,18.20
2023-01-13T01:18:58.681Z,18.23
2023-01-13T01:21:27.500Z,19.73
2023-01-13T01:23:55.405Z,17.15
2023-01-13T01:26:24.821Z,17.05
2023-01-13T01:28:52.151Z,15.20
2023-01-13T01:31:23.329Z,16.30
2023-01-13T01:33:50.649Z,17.95
2023-01-13T01:36:19.946Z,17.52
2023-01-13T01:38:48.177Z,17.85
2023-01-13T01:41:17.867Z,17.73
2023-01-13T01:44:02.843Z,16.70
2023-01-13T01:46:51.894Z,16.08
2023-01-13T01:49:26.378Z,20.73
2023-01-13T01:52:04.149Z,17.02
2023-01-13T01:54:40.349Z,26.15
2023-01-13T01:57:11.420Z,15.73
2023-01-13T01:59:39.697Z,16.52
2023-01-13T02:02:07.252Z,17.52
2023-01-13T02:04:39.720Z,18.15
2023-01-13T02:07:07.213Z,15.00
2023-01-13T02:09:36.051Z,18.90
2023-01-13T02:12:21.374Z,18.00
2023-01-13T02:14:48.265Z,17.08
2023-01-13T02:17:21.145Z,15.20
2023-01-13T02:20:29.036Z,16.88
2023-01-13T02:23:52.050Z,16.75
2023-01-13T02:26:21.815Z,16.50
2023-01-13T02:29:19.287Z,15.40
2023-01-13T02:31:50.074Z,15.40
2023-01-13T02:34:26.235Z,13.67
2023-01-13T02:37:07.395Z,17.85
2023-01-13T02:39:59.632Z,13.52
2023-01-13T02:42:52.684Z,14.43
2023-01-13T02:45:25.023Z,15.25
2023-01-13T02:47:55.914Z,15.80
2023-01-13T02:50:29.557Z,16.53
2023-01-13T02:53:01.350Z,17.30
2023-01-13T02:55:35.413Z,14.43
2023-01-13T02:58:06.448Z,16.02
2023-01-13T03:00:35.332Z,14.30
2023-01-13T03:03:02.370Z,15.73
2023-01-13T03:05:32.343Z,16.98
2023-01-13T03:08:02.009Z,17.20
2023-01-13T03:10:37.862Z,12.68
2023-01-13T03:13:19.400Z,14.85
2023-01-13T03:16:13.784Z,12.07
2023-01-13T03:18:43.271Z,15.55
2023-01-13T03:21:23.923Z,14.75
2023-01-13T03:23:54.062Z,12.07
2023-01-13T03:26:28.642Z,16.63
2023-01-13T03:29:09.039Z,16.75
2023-01-13T03:31:41.992Z,16.42
2023-01-13T03:34:15.618Z,13.63
2023-01-13T03:36:47.493Z,14.90
2023-01-13T03:39:20.176Z,14.10
2023-01-13T03:41:57.325Z,13.30
2023-01-13T03:44:35.770Z,15.32
2023-01-13T03:47:11.551Z,16.45
2023-01-13T03:49:40.867Z,15.38
2023-01-13T03:52:11.474Z,14.05
2023-01-13T03:54:51.088Z,14.60
2023-01-13T03:57:23.152Z,15.07
2023-01-13T03:59:55.304Z,15.32
2023-01-13T04:02:56.350Z,12.82
2023-01-13T04:05:23.464Z,17.83
2023-01-13T04:07:53.666Z,13.38
2023-01-13T04:10:28.198Z,13.38
2023-01-13T04:13:05.831Z,13.82
2023-01-13T04:15:40.240Z,13.98
2023-01-13T04:18:13.185Z,9.13
2023-01-13T04:20:41.545Z,12.98
2023-01-13T04:23:08.880Z,16.40
2023-01-13T04:25:36.231Z,14.73
2023-01-13T04:28:03.259Z,14.45
2023-01-13T04:30:30.084Z,12.77
2023-01-13T04:32:56.827Z,13.40
2023-01-13T04:35:23.784Z,13.32
2023-01-13T04:37:50.552Z,15.60
2023-01-13T04:40:17.843Z,13.73
2023-01-13T04:42:45.244Z,13.05
2023-01-13T04:45:13.152Z,14.55
2023-01-13T04:47:41.896Z,14.10
2023-01-13T04:50:09.823Z,11.93
2023-01-13T04:52:36.680Z,13.50
2023-01-13T04:55:03.874Z,12.30
2023-01-13T04:57:31.051Z,13.68
2023-01-13T04:59:57.790Z,12.80
2023-01-13T05:02:24.530Z,14.23
2023-01-13T05:04:51.302Z,15.70
2023-01-13T05:07:18.525Z,10.95
2023-01-13T05:09:45.275Z,12.30
2023-01-13T05:12:30.481Z,14.48
2023-01-13T05:15:15.640Z,11.93
2023-01-13T05:17:43.394Z,11.35
2023-01-13T05:20:10.916Z,13.55
2023-01-13T05:22:56.587Z,11.80
2023-01-13T05:25:25.335Z,15.23
2023-01-13T05:27:57.643Z,12.38
2023-01-13T05:30:30.463Z,15.18
2023-01-13T05:32:57.531Z,11.82
2023-01-13T05:35:25.058Z,16.25
2023-01-13T05:37:51.848Z,12.13
2023-01-13T05:40:39.583Z,15.18
2023-01-13T05:43:25.737Z,13.70
2023-01-13T05:46:04.419Z,11.70
2023-01-13T05:48:38.439Z,13.45
2023-01-13T05:51:07.955Z,12.90
2023-01-13T05:53:34.891Z,13.73
2023-01-13T05:56:05.246Z,12.13
2023-01-13T05:58:32.099Z,8.48
2023-01-13T06:01:07.427Z,12.60
2023-01-13T06:03:34.712Z,13.10
2023-01-13T06:06:03.844Z,16.02
2023-01-13T06:08:31.661Z,13.55
2023-01-13T06:10:58.461Z,14.93
2023-01-13T06:13:25.860Z,11.65
2023-01-13T06:15:57.067Z,13.82
2023-01-13T06:18:24.359Z,8.55
2023-01-13T06:20:51.199Z,12.38
2023-01-13T06:23:17.917Z,15.52
2023-01-13T06:26:00.459Z,13.35
2023-01-13T06:28:27.356Z,11.57
2023-01-13T06:30:58.912Z,12.57
2023-01-13T06:33:32.983Z,12.20
2023-01-13T06:36:04.426Z,12.15
2023-01-13T06:38:35.066Z,13.45
2023-01-13T06:41:02.327Z,12.02
2023-01-13T06:43:29.065Z,12.05
2023-01-13T06:45:56.799Z,15.15
2023-01-13T06:48:27.993Z,10.15
2023-01-13T06:50:54.803Z,12.70
2023-01-13T06:53:21.717Z,21.90
2023-01-13T06:55:48.428Z,11.85
2023-01-13T06:58:15.341Z,13.10
2023-01-13T07:00:42.126Z,14.15
2023-01-13T07:03:10.151Z,14.32
2023-01-13T07:05:37.712Z,14.30
2023-01-13T07:08:04.751Z,13.45
2023-01-13T07:10:32.684Z,14.50
2023-01-13T07:13:22.583Z,13.73
2023-01-13T07:15:57.667Z,14.88
2023-01-13T07:18:27.415Z,12.10
2023-01-13T07:21:08.095Z,11.15
2023-01-13T07:23:37.474Z,12.55
2023-01-13T07:26:05.855Z,13.63
2023-01-13T07:28:33.046Z,13.57
2023-01-13T07:31:00.566Z,10.63
2023-01-13T07:33:27.550Z,11.32
2023-01-13T07:36:02.561Z,12.27
2023-01-13T07:38:30.251Z,12.70
2023-01-13T07:40:57.134Z,12.80
2023-01-13T07:43:33.045Z,13.80
2023-01-13T07:46:05.063Z,15.43
2023-01-13T07:48:34.334Z,13.25
2023-01-13T07:51:06.689Z,9.75
2023-01-13T07:53:33.979Z,11.07
2023-01-13T07:56:02.243Z,11.45
2023-01-13T07:58:30.127Z,14.43
2023-01-13T08:00:57.923Z,13.60
2023-01-13T08:03:26.449Z,13.40
2023-01-13T08:05:53.326Z,11.75
2023-01-13T08:08:20.388Z,11.82
2023-01-13T08:10:47.148Z,8.02
2023-01-13T08:13:18.388Z,11.07
2023-01-13T08:15:46.880Z,9.95
2023-01-13T08:18:14.475Z,12.23
2023-01-13T08:20:41.728Z,14.38
2023-01-13T08:23:08.628Z,11.35
2023-01-13T08:25:35.625Z,12.00
2023-01-13T08:28:02.431Z,11.85
2023-01-13T08:30:29.687Z,13.57
2023-01-13T08:32:56.869Z,12.30
2023-01-13T08:35:23.945Z,12.93
2023-01-13T08:37:51.379Z,12.38
2023-01-13T08:40:19.364Z,11.13
2023-01-13T08:42:48.514Z,11.30
2023-01-13T08:45:15.649Z,13.32
2023-01-13T08:47:42.424Z,11.10
2023-01-13T08:50:11.198Z,10.88
2023-01-13T08:52:37.947Z,13.98
2023-01-13T08:55:05.012Z,11.27
2023-01-13T08:57:31.904Z,13.27
2023-01-13T08:59:58.800Z,12.35
2023-01-13T09:02:27.115Z,13.32
2023-01-13T09:04:55.349Z,12.85
2023-01-13T09:07:22.410Z,13.40
2023-01-13T09:09:49.162Z,12.65
2023-01-13T09:12:35.126Z,13.50
2023-01-13T09:15:02.495Z,11.18
2023-01-13T09:17:30.685Z,15.00
2023-01-13T09:19:57.478Z,11.43
2023-01-13T09:22:27.061Z,12.15
2023-01-13T09:24:55.295Z,11.32
2023-01-13T09:27:23.675Z,9.95
2023-01-13T09:29:50.635Z,12.32
2023-01-13T09:32:17.409Z,10.52
2023-01-13T09:35:02.842Z,12.82
2023-01-13T09:37:34.749Z,11.45
2023-01-13T09:40:02.807Z,12.85
2023-01-13T09:43:13.328Z,12.30
2023-01-13T09:45:49.641Z,11.10
2023-01-13T09:48:23.564Z,12.13
2023-01-13T09:51:09.752Z,11.20
2023-01-13T09:53:46.015Z,15.65
2023-01-13T09:56:12.899Z,12.32
2023-01-13T09:58:39.948Z,16.23
2023-01-13T10:01:19.012Z,12.57
2023-01-13T10:03:45.988Z,12.95
2023-01-13T10:06:26.877Z,10.75
2023-01-13T10:08:53.693Z,12.93
2023-01-13T10:11:41.626Z,14.30
2023-01-13T10:14:33.687Z,10.90
2023-01-13T10:19:44.540Z,11.80
2023-01-13T10:22:54.755Z,8.80
2023-01-13T10:25:36.463Z,10.90
2023-01-13T10:28:11.087Z,12.52
2023-01-13T10:30:42.063Z,11.77
2023-01-13T10:33:13.615Z,13.10
2023-01-13T10:36:12.414Z,12.65
2023-01-13T10:38:40.709Z,14.23
2023-01-13T10:41:18.266Z,12.18
2023-01-13T10:43:58.253Z,13.52
2023-01-13T10:46:25.542Z,13.52
2023-01-13T10:48:55.996Z,13.55
2023-01-13T10:51:38.149Z,11.82
2023-01-13T10:54:13.908Z,13.13
2023-01-13T10:56:43.273Z,13.75
2023-01-13T10:59:22.401Z,11.57
2023-01-13T11:02:24.863Z,11.93
2023-01-13T11:05:02.906Z,11.43
2023-01-13T11:07:40.413Z,12.50
2023-01-13T11:10:10.188Z,12.82
2023-01-13T11:12:53.780Z,12.82
2023-01-13T11:16:00.076Z,14.10
2023-01-13T11:18:40.174Z,15.68
2023-01-13T11:21:17.477Z,13.60
2023-01-13T11:23:50.467Z,13.18
2023-01-13T11:26:24.084Z,12.98
2023-01-13T11:28:55.157Z,12.52
2023-01-13T11:31:38.147Z,13.48
2023-01-13T11:34:25.980Z,12.32
2023-01-13T11:36:56.883Z,11.90
2023-01-13T11:39:30.120Z,12.88
2023-01-13T11:42:20.633Z,16.08
2023-01-13T11:45:22.768Z,15.77
2023-01-13T11:50:36.378Z,13.57
2023-01-13T11:53:30.926Z,15.45
2023-01-13T11:56:20.038Z,13.85
2023-01-13T11:59:27.050Z,15.68
2023-01-13T12:02:31.766Z,15.85
2023-01-13T12:05:17.274Z,14.32
2023-01-13T12:08:18.192Z,15.48
2023-01-13T12:10:54.950Z,15.25
2023-01-13T12:13:52.121Z,14.77
2023-01-13T12:16:28.584Z,16.13
2023-01-13T12:19:13.648Z,15.90
2023-01-13T12:22:12.637Z,16.15
2023-01-13T12:24:51.063Z,14.32
2023-01-13T12:27:59.102Z,15.32
2023-01-13T12:30:37.090Z,13.45
2023-01-13T12:33:26.064Z,16.75
2023-01-13T12:36:01.196Z,12.75
2023-01-13T12:38:42.155Z,14.52
2023-01-13T12:41:29.452Z,13.03
2023-01-13T12:44:16.305Z,14.52
2023-01-13T12:46:54.463Z,15.70
2023-01-13T12:49:35.416Z,15.43
2023-01-13T12:52:14.356Z,16.67
2023-01-13T12:54:41.114Z,13.25
2023-01-13T12:57:16.896Z,16.15
2023-01-13T13:00:03.603Z,13.68
2023-01-13T13:02:37.943Z,15.05
2023-01-13T13:05:22.859Z,17.48
2023-01-13T13:08:05.938Z,16.75
2023-01-13T13:10:37.551Z,16.52
2023-01-13T13:13:20.255Z,15.65
2023-01-13T13:15:48.787Z,17.02
2023-01-13T13:18:19.603Z,15.43
2023-01-13T13:20:58.855Z,17.40
2023-01-13T13:23:37.333Z,18.80
2023-01-13T13:26:23.867Z,14.52
2023-01-13T13:29:15.329Z,15.07
2023-01-13T13:31:55.764Z,15.90
2023-01-13T13:34:34.296Z,17.50
2023-01-13T13:37:58.456Z,15.65
2023-01-13T13:40:44.687Z,18.60
2023-01-13T13:43:33.273Z,17.88
2023-01-13T13:46:21.898Z,19.15
2023-01-13T13:48:55.420Z,16.52
2023-01-13T13:51:25.409Z,24.05
2023-01-13T13:53:52.878Z,18.10
2023-01-13T13:56:24.706Z,15.45
2023-01-13T13:58:53.110Z,16.10
2023-01-13T14:01:35.309Z,18.10
2023-01-13T14:04:07.334Z,17.48
2023-01-13T14:06:34.313Z,17.05
2023-01-13T14:09:03.662Z,19.38
2023-01-13T14:11:33.537Z,16.95
2023-01-13T14:14:12.969Z,15.88
2023-01-13T14:16:41.025Z,17.27
2023-01-13T14:19:36.047Z,15.40
2023-01-13T14:22:04.903Z,20.08
2023-01-13T14:24:32.840Z,16.95
2023-01-13T14:27:17.108Z,16.90
2023-01-13T14:29:44.649Z,17.63
2023-01-13T14:32:17.603Z,18.95
2023-01-13T14:34:44.891Z,18.02
2023-01-13T14:37:26.741Z,17.85
2023-01-13T14:42:21.645Z,16.15
2023-01-13T14:44:51.525Z,18.75
2023-01-13T14:47:29.739Z,16.40
2023-01-13T14:50:05.078Z,19.35
2023-01-13T14:52:36.083Z,16.98
2023-01-13T14:55:05.790Z,16.52
2023-01-13T14:57:41.574Z,19.40
2023-01-13T15:00:14.455Z,17.58
2023-01-13T15:02:53.793Z,20.67
2023-01-13T15:05:20.622Z,19.42
2023-01-13T15:08:02.253Z,18.52
2023-01-13T15:10:49.979Z,17.80
2023-01-13T15:13:42.904Z,15.80
2023-01-13T15:16:21.156Z,18.80
2023-01-13T15:18:48.360Z,18.55
2023-01-13T15:21:18.589Z,19.50
2023-01-13T15:23:47.240Z,19.58
2023-01-13T15:26:21.094Z,20.00
2023-01-13T15:28:48.741Z,21.50
2023-01-13T15:31:15.884Z,20.42
2023-01-13T15:33:43.271Z,20.73
2023-01-13T15:36:31.391Z,17.48
2023-01-13T15:39:00.197Z,21.25
2023-01-13T15:41:45.388Z,16.08
2023-01-13T15:44:32.680Z,18.77
2023-01-13T15:47:06.507Z,29.77
2023-01-13T15:49:37.885Z,19.35
2023-01-13T15:52:16.037Z,19.58
2023-01-13T15:54:42.790Z,22.50
2023-01-13T15:57:22.168Z,18.75
2023-01-13T15:59:50.085Z,20.58
2023-01-13T16:02:18.420Z,19.65
2023-01-13T16:04:45.732Z,19.27
2023-01-13T16:07:16.245Z,22.75
2023-01-13T16:09:43.369Z,21.60
2023-01-13T16:12:10.109Z,20.00
2023-01-13T16:14:37.167Z,20.65
2023-01-13T16:17:12.715Z,24.42
2023-01-13T16:19:40.783Z,18.70
2023-01-13T16:22:10.177Z,19.40
2023-01-13T16:24:37.289Z,21.10
2023-01-13T16:27:33.195Z,20.48
2023-01-13T16:30:00.084Z,19.50
2023-01-13T16:32:26.958Z,21.08
2023-01-13T16:34:53.811Z,20.92
2023-01-13T16:37:27.175Z,28.48
2023-01-13T16:39:54.452Z,21.17
2023-01-13T16:42:21.765Z,20.95
2023-01-13T16:44:49.786Z,19.75
2023-01-13T16:47:18.489Z,21.13
2023-01-13T16:49:46.216Z,23.27
2023-01-13T16:52:13.169Z,23.27
2023-01-13T16:54:40.035Z,21.15
2023-01-13T16:57:07.881Z,20.25
2023-01-13T16:59:34.692Z,25.08
2023-01-13T17:02:02.147Z,24.23
2023-01-13T17:04:29.186Z,21.63
2023-01-13T17:07:06.520Z,19.88
2023-01-13T17:09:33.828Z,21.95
2023-01-13T17:12:00.649Z,22.52
2023-01-13T17:14:27.510Z,24.48
2023-01-13T17:16:58.526Z,20.20
2023-01-13T17:19:25.866Z,24.60
2023-01-13T17:21:52.849Z,21.33
2023-01-13T17:24:20.295Z,19.88
2023-01-13T17:26:50.228Z,22.90
2023-01-13T17:29:23.026Z,20.58
2023-01-13T17:31:53.123Z,19.90
2023-01-13T17:34:21.185Z,21.83
2023-01-13T17:36:48.463Z,20.90
2023-01-13T17:39:20.659Z,22.55
2023-01-13T17:41:47.612Z,20.70
2023-01-13T17:44:16.010Z,20.83
2023-01-13T17:46:43.309Z,21.95
2023-01-13T17:49:14.229Z,23.48
2023-01-13T17:51:41.297Z,21.20
2023-01-13T17:54:12.276Z,20.42
2023-01-13T17:56:40.587Z,20.50
2023-01-13T17:59:10.100Z,23.25
2023-01-13T18:01:37.836Z,21.10
2023-01-13T18:04:06.559Z,22.45
2023-01-13T18:06:33.755Z,21.10
2023-01-13T18:09:01.075Z,18.33
2023-01-13T18:11:28.234Z,19.60
2023-01-13T18:14:00.318Z,22.40
2023-01-13T18:16:30.345Z,20.80
2023-01-13T18:19:19.133Z,22.75
2023-01-13T18:22:05.807Z,19.40
2023-01-13T18:24:51.820Z,22.80
2023-01-13T18:27:23.826Z,19.98
2023-01-13T18:29:53.359Z,21.15
2023-01-13T18:32:22.506Z,19.13
2023-01-13T18:34:53.969Z,23.45
2023-01-13T18:37:26.450Z,20.38
2023-01-13T18:39:53.828Z,22.25
2023-01-13T18:42:39.658Z,23.45
2023-01-13T18:45:07.661Z,24.10
2023-01-13T18:47:39.079Z,24.83
2023-01-13T18:50:06.965Z,22.07
2023-01-13T18:52:34.557Z,21.70
2023-01-13T18:55:01.692Z,22.38
2023-01-13T18:57:29.447Z,21.35
2023-01-13T18:59:59.232Z,20.52
2023-01-13T19:02:27.780Z,18.65
2023-01-13T19:04:55.113Z,21.10
2023-01-13T19:07:28.580Z,21.52
2023-01-13T19:09:56.124Z,24.52
2023-01-13T19:12:26.425Z,20.75
2023-01-13T19:14:57.810Z,23.63
2023-01-13T19:17:26.568Z,22.02
2023-01-13T19:19:56.130Z,19.60
2023-01-13T19:22:27.387Z,21.23
2023-01-13T19:24:54.570Z,20.05
2023-01-13T19:27:22.012Z,22.30
2023-01-13T19:29:52.645Z,21.77
2023-01-13T19:32:23.599Z,23.60
2023-01-13T19:34:51.310Z,19.80
2023-01-13T19:37:19.484Z,21.95
2023-01-13T19:39:46.558Z,22.73
2023-01-13T19:42:32.194Z,22.02
2023-01-13T19:45:17.733Z,23.05
2023-01-13T19:47:45.983Z,23.33
2023-01-13T19:50:14.081Z,19.73
2023-01-13T19:52:42.529Z,24.67
2023-01-13T19:55:11.927Z,21.65
2023-01-13T19:57:43.454Z,26.52
2023-01-13T20:00:11.953Z,21.77
2023-01-13T20:02:44.835Z,24.40
2023-01-13T20:05:12.862Z,22.17
2023-01-13T20:07:39.742Z,19.90
2023-01-13T20:10:07.259Z,21.98
2023-01-13T20:12:34.063Z,21.70
2023-01-13T20:15:00.931Z,19.92
2023-01-13T20:17:27.886Z,22.35
2023-01-13T20:19:55.339Z,21.35
2023-01-13T20:22:22.287Z,21.63
2023-01-13T20:24:54.928Z,21.42
2023-01-13T20:27:23.884Z,26.60
2023-01-13T20:29:51.147Z,21.50
2023-01-13T20:32:17.957Z,24.05
2023-01-13T20:34:44.836Z,21.17
2023-01-13T20:37:12.729Z,23.92
2023-01-13T20:39:41.342Z,24.77
2023-01-13T20:42:28.683Z,18.92
2023-01-13T20:44:56.870Z,21.23
2023-01-13T20:47:24.001Z,22.85
2023-01-13T20:49:50.913Z,23.98
2023-01-13T20:52:17.697Z,24.58
2023-01-13T20:54:44.562Z,21.85
2023-01-13T20:57:11.864Z,20.08
2023-01-13T20:59:39.343Z,23.67
2023-01-13T21:02:11.108Z,23.73
2023-01-13T21:07:04.478Z,21.30
2023-01-13T21:09:32.303Z,19.55
2023-01-13T21:12:18.166Z,25.45
2023-01-13T21:15:03.740Z,20.77
2023-01-13T21:17:50.669Z,21.65
2023-01-13T21:20:18.010Z,20.48
2023-01-13T21:22:46.687Z,22.60
2023-01-13T21:25:14.222Z,23.02
2023-01-13T21:27:43.897Z,21.08
2023-01-13T21:30:14.870Z,22.75
2023-01-13T21:32:43.302Z,20.85
2023-01-13T21:35:10.697Z,25.38
2023-01-13T21:37:40.269Z,28.30
2023-01-13T21:40:10.721Z,20.40
2023-01-13T21:42:55.912Z,26.33
2023-01-13T21:45:41.952Z,21.55
2023-01-13T21:48:08.878Z,24.73
2023-01-13T21:50:37.912Z,25.10
2023-01-13T21:53:05.784Z,23.00
2023-01-13T21:55:32.949Z,21.60
2023-01-13T21:58:13.947Z,20.85
2023-01-13T22:00:43.048Z,22.33
2023-01-13T22:03:11.725Z,20.55
2023-01-13T22:05:39.008Z,21.77
2023-01-13T22:08:06.311Z,23.77
2023-01-13T22:10:34.211Z,26.88
2023-01-13T22:13:22.309Z,24.02
2023-01-13T22:15:49.153Z,20.45
2023-01-13T22:18:18.125Z,21.60
2023-01-13T22:20:45.270Z,25.45
2023-01-13T22:23:12.208Z,26.85
2023-01-13T22:25:38.982Z,22.35
2023-01-13T22:28:06.178Z,23.70
2023-01-13T22:30:33.339Z,23.85
2023-01-13T22:33:00.664Z,27.15
2023-01-13T22:35:27.522Z,20.92
2023-01-13T22:37:54.352Z,22.45
2023-01-13T22:40:21.143Z,22.80
2023-01-13T22:42:47.950Z,26.00
2023-01-13T22:45:14.862Z,21.63
2023-01-13T22:47:41.864Z,24.10
2023-01-13T22:50:12.582Z,26.63
2023-01-13T22:52:39.559Z,25.67
2023-01-13T22:55:06.967Z,24.48
2023-01-13T22:57:36.584Z,24.60
2023-01-13T23:00:14.927Z,25.25
2023-01-13T23:02:42.011Z,23.80
2023-01-13T23:05:09.074Z,21.15
2023-01-13T23:07:36.237Z,23.48
2023-01-13T23:10:04.141Z,24.52
2023-01-13T23:12:31.107Z,21.63
2023-01-13T23:14:57.897Z,27.73
2023-01-13T23:17:24.673Z,24.98
2023-01-13T23:19:51.426Z,26.92
2023-01-13T23:22:18.225Z,24.67
2023-01-13T23:24:45.603Z,23.00
2023-01-13T23:27:12.388Z,24.00
2023-01-13T23:29:39.207Z,27.15
2023-01-13T23:32:06.097Z,29.98
2023-01-13T23:34:32.860Z,29.20
2023-01-13T23:36:59.602Z,29.27
2023-01-13T23:39:26.450Z,21.05
2023-01-13T23:41:53.280Z,22.55
2023-01-13T23:44:20.234Z,25.50
2023-01-13T23:46:47.069Z,22.13
2023-01-13T23:49:13.881Z,30.75
2023-01-13T23:51:40.711Z,23.45
2023-01-13T23:54:07.551Z,25.05
2023-01-13T23:56:39.165Z,23.80
